Terminal Aerodrome Forecast
Issued by NWS Upton, NY

Home | Current Version | Previous Version | Text Only | Print | Product List | Glossary On
Versions: 1 2 3 4 5 6 7 8 9 10 11 12 13 14 15 16 17 18 19 20 21 22 23 24 25 26 27
339
FTUS41 KOKX 090548
TAFEWR
TAF
KEWR 090548Z 0906/1012 03008KT P6SM -SN BKN008 OVC012
     FM090800 03007KT 6SM BR SCT008 OVC012
     FM091300 04009KT P6SM OVC015
     FM092200 05006KT P6SM OVC015
     FM100100 05006KT 2SM -SN BR BKN007 OVC012
     FM100600 04005KT 1SM -SN BR OVC007=

USA.gov is the U.S. government's official web portal to all federal, state and local government web resources and services.